Troutdale, OR

8:41 AM PST on January 26, 2015 (GMT -0800)
Stewart Ridge | Change Station
CLOSE
Current Station
Personal Weather Station
Location: Troutdale, OR
Elevation: 280 ft
Nearby Weather Stations
Active Advisory: Dense Fog Advisory Active Notice: Record Report

Elev 280 ft 45.53 °N, 122.39 °W | Updated 1 minute ago

Mostly Cloudy
Mostly Cloudy
41.2 °F
Feels Like 41 °F
N
0.0
Wind Variable Wind from West
Gusts 1.1 mph

Today
High -- | Low -- °F
--% Chance of Precip.
Yesterday
High -- | Low -- °F
Precip. -- in
7:37 AM 5:07 PM
Waxing Crescent, 44% visible
Pressure 30.03 in
Visibility 1.8 miles
Clouds Mostly Cloudy 300 ft
Windchill 41 °F
Dew Point 39 °F
Humidity 92%
Rainfall 0.00 in
Snow Depth Not available.
UV 0 out of 12
Pollen 2.60 out of 12
Air Quality Not available.
Flu Activity Not available.
SPECI KTTD 261611Z 00000KT 1 3/4SM BR BKN003 04/03 A3003 RMK AO2 T00390028

More Conditions Fewer Conditions

Pressure 30.03 in
Visibility 1.8 miles
Clouds Mostly Cloudy 300 ft
Windchill 41 °F
Dew Point 39 °F
Humidity 92%
Rainfall 0.00 in
Snow Depth Not available.
UV 0 out of 12
Pollen 2.60 out of 12
Air Quality Not available.
Flu Activity Not available.
SPECI KTTD 261611Z 00000KT 1 3/4SM BR BKN003 04/03 A3003 RMK AO2 T00390028

More Conditions Fewer Conditions

10-Day Weather Forecast

Almanac

Astronomy

Jan. 26, 2015 Rise Set
Actual Time
Civil Twilight
Nautical Twilight
Astronomical Twilight
Moon
Length of Visible Light
Length of Day
Tomorrow will be .
, % of the Moon is Illuminated

Today's Extremes

State Highs State Lows

Community

WunderPhotos

Upload Photos

1,790,289 photos uploaded!

WunderBlogs® & News

Nearby

Air Quality

  Air Quality AQ Index Pollutant
Not available.

Snow Depth

Station Depth Elevation

Earthquake Activity

City Distance Mag. Time & Date
Minimum magnitude displayed is 2.5.

Coastal Water Temperatures

Place Temperature

Nearby Weather Stations